createdAt,value
2023-05-15T00:00:40.428Z,11.77
2023-05-15T00:03:07.444Z,11.94
2023-05-15T00:05:34.041Z,12.01
2023-05-15T00:08:00.581Z,12.21
2023-05-15T00:10:27.047Z,12.34
2023-05-15T00:12:53.560Z,12.31
2023-05-15T00:15:20.042Z,12.36
2023-05-15T00:17:46.557Z,12.31
2023-05-15T00:20:13.137Z,12.25
2023-05-15T00:22:39.612Z,12.37
2023-05-15T00:25:06.493Z,12.34
2023-05-15T00:27:33.425Z,12.38
2023-05-15T00:29:59.968Z,12.25
2023-05-15T00:32:26.456Z,12.41
2023-05-15T00:34:52.980Z,12.49
2023-05-15T00:37:19.443Z,12.51
2023-05-15T00:39:46.046Z,12.49
2023-05-15T00:42:12.894Z,12.53
2023-05-15T00:44:40.298Z,12.53
2023-05-15T00:47:07.643Z,12.50
2023-05-15T00:49:35.546Z,12.51
2023-05-15T00:52:03.704Z,12.56
2023-05-15T00:54:30.510Z,12.49
2023-05-15T00:56:58.115Z,12.49
2023-05-15T00:59:34.515Z,12.34
2023-05-15T01:02:01.186Z,12.02
2023-05-15T01:04:27.958Z,11.65
2023-05-15T01:06:54.570Z,11.68
2023-05-15T01:09:23.612Z,11.83
2023-05-15T01:11:53.379Z,11.99
2023-05-15T01:14:19.922Z,11.90
2023-05-15T01:16:46.422Z,12.00
2023-05-15T01:19:12.972Z,11.96
2023-05-15T01:21:57.838Z,11.97
2023-05-15T01:24:27.383Z,11.91
2023-05-15T01:27:02.781Z,11.80
2023-05-15T01:29:47.003Z,11.81
2023-05-15T01:32:20.433Z,11.91
2023-05-15T01:34:47.010Z,11.90
2023-05-15T01:37:14.691Z,11.88
2023-05-15T01:39:42.943Z,11.93
2023-05-15T01:42:10.829Z,11.97
2023-05-15T01:44:40.547Z,12.03
2023-05-15T01:47:10.251Z,11.99
2023-05-15T01:49:38.211Z,11.92
2023-05-15T01:52:10.508Z,11.74
2023-05-15T01:54:37.325Z,11.87
2023-05-15T01:57:04.521Z,11.69
2023-05-15T01:59:31.793Z,11.78
2023-05-15T02:01:58.688Z,11.71
2023-05-15T02:04:25.772Z,11.75
2023-05-15T02:06:53.512Z,11.85
2023-05-15T02:09:21.147Z,11.80
2023-05-15T02:11:47.801Z,11.77
2023-05-15T02:14:14.835Z,11.82
2023-05-15T02:16:41.461Z,11.81
2023-05-15T02:19:08.092Z,11.71
2023-05-15T02:21:35.099Z,11.69
2023-05-15T02:24:01.625Z,11.45
2023-05-15T02:26:40.632Z,11.49
2023-05-15T02:29:18.390Z,11.56
2023-05-15T02:31:44.833Z,11.54
2023-05-15T02:34:11.291Z,11.43
2023-05-15T02:36:40.639Z,11.46
2023-05-15T02:39:09.147Z,10.94
2023-05-15T02:41:36.934Z,10.62
2023-05-15T02:44:03.836Z,10.87
2023-05-15T02:46:31.024Z,11.02
2023-05-15T02:48:59.022Z,11.23
2023-05-15T02:51:25.639Z,11.18
2023-05-15T02:53:52.225Z,11.11
2023-05-15T02:56:18.723Z,10.98
2023-05-15T02:58:45.320Z,10.97
2023-05-15T03:01:12.329Z,10.90
2023-05-15T03:03:38.847Z,10.98
2023-05-15T03:06:05.389Z,10.79
2023-05-15T03:08:31.885Z,10.80
2023-05-15T03:10:58.459Z,10.69
2023-05-15T03:13:25.112Z,10.77
2023-05-15T03:15:52.136Z,10.62
2023-05-15T03:18:19.645Z,10.51
2023-05-15T03:20:48.353Z,10.43
2023-05-15T03:23:14.826Z,10.42
2023-05-15T03:25:41.312Z,10.29
2023-05-15T03:28:07.830Z,10.25
2023-05-15T03:30:34.386Z,10.23
2023-05-15T03:33:03.690Z,10.06
2023-05-15T03:35:32.206Z,10.02
2023-05-15T03:37:58.760Z,10.31
2023-05-15T03:40:25.240Z,10.39
2023-05-15T03:42:53.445Z,10.36
2023-05-15T03:45:20.933Z,10.38
2023-05-15T03:47:48.498Z,10.29
2023-05-15T03:50:15.521Z,10.35
2023-05-15T03:52:42.413Z,10.38
2023-05-15T03:55:09.049Z,10.30
2023-05-15T03:57:36.506Z,10.10
2023-05-15T04:00:07.366Z,10.35
2023-05-15T04:02:39.030Z,10.27
2023-05-15T04:05:06.211Z,10.12
2023-05-15T04:07:33.248Z,10.19
2023-05-15T04:10:02.859Z,10.23
2023-05-15T04:12:29.828Z,10.14
2023-05-15T04:14:59.707Z,10.43
2023-05-15T04:17:26.294Z,11.00
2023-05-15T04:19:52.787Z,11.04
2023-05-15T04:22:19.225Z,11.09
2023-05-15T04:24:45.719Z,10.96
2023-05-15T04:27:12.234Z,11.13
2023-05-15T04:29:38.768Z,11.32
2023-05-15T04:32:05.262Z,11.33
2023-05-15T04:34:31.798Z,11.48
2023-05-15T04:36:58.303Z,11.50
2023-05-15T04:39:24.862Z,11.38
2023-05-15T04:41:51.360Z,11.38
2023-05-15T04:44:17.989Z,11.40
2023-05-15T04:46:44.485Z,11.50
2023-05-15T04:49:10.944Z,11.10
2023-05-15T04:51:37.489Z,10.98
2023-05-15T04:54:04.101Z,11.14
2023-05-15T04:56:30.617Z,11.12
2023-05-15T04:58:57.060Z,11.03
2023-05-15T05:01:23.593Z,11.53
2023-05-15T05:03:50.285Z,11.60
2023-05-15T05:06:16.840Z,11.78
2023-05-15T05:08:43.286Z,12.03
2023-05-15T05:11:09.777Z,11.89
2023-05-15T05:13:36.238Z,12.29
2023-05-15T05:16:02.873Z,12.12
2023-05-15T05:18:30.474Z,12.27
2023-05-15T05:21:03.704Z,12.58
2023-05-15T05:23:30.585Z,12.47
2023-05-15T05:25:57.304Z,12.14
2023-05-15T05:28:23.798Z,12.47
2023-05-15T05:30:50.392Z,12.26
2023-05-15T05:33:16.898Z,12.49
2023-05-15T05:35:43.375Z,13.03
2023-05-15T05:38:09.808Z,13.13
2023-05-15T05:40:37.994Z,13.56
2023-05-15T05:43:04.440Z,13.69
2023-05-15T05:45:31.114Z,14.01
2023-05-15T05:47:57.728Z,13.82
2023-05-15T05:50:24.374Z,14.13
2023-05-15T05:52:50.870Z,14.22
2023-05-15T05:55:17.304Z,14.00
2023-05-15T05:57:43.759Z,13.98
2023-05-15T06:00:10.930Z,14.62
2023-05-15T06:02:38.530Z,14.63
2023-05-15T06:05:06.402Z,14.77
2023-05-15T06:07:33.728Z,15.02
2023-05-15T06:10:00.273Z,15.03
2023-05-15T06:12:27.961Z,15.13
2023-05-15T06:14:54.470Z,15.29
2023-05-15T06:17:21.311Z,15.61
2023-05-15T06:19:47.877Z,15.99
2023-05-15T06:22:14.387Z,15.96
2023-05-15T06:24:40.918Z,16.46
2023-05-15T06:27:07.363Z,16.30
2023-05-15T06:29:34.012Z,16.05
2023-05-15T06:32:00.596Z,15.59
2023-05-15T06:34:27.064Z,15.53
2023-05-15T06:36:53.572Z,15.81
2023-05-15T06:39:20.006Z,15.90
2023-05-15T06:41:46.456Z,15.91
2023-05-15T06:44:12.965Z,16.20
2023-05-15T06:46:39.595Z,16.68
2023-05-15T06:49:06.244Z,16.68
2023-05-15T06:51:32.719Z,17.03
2023-05-15T06:53:59.364Z,16.51
2023-05-15T06:56:26.000Z,16.83
2023-05-15T06:58:52.486Z,17.05
2023-05-15T07:01:18.942Z,17.16
2023-05-15T07:03:45.614Z,16.95
2023-05-15T07:06:12.076Z,17.21
2023-05-15T07:08:38.508Z,17.71
2023-05-15T07:11:05.126Z,17.42
2023-05-15T07:13:31.598Z,17.23
2023-05-15T07:15:58.083Z,17.44
2023-05-15T07:18:24.657Z,17.61
2023-05-15T07:20:51.309Z,17.64
2023-05-15T07:23:17.756Z,17.74
2023-05-15T07:25:45.918Z,17.85
2023-05-15T07:28:12.567Z,18.23
2023-05-15T07:30:39.043Z,18.53
2023-05-15T07:33:06.083Z,18.10
2023-05-15T07:35:32.651Z,18.61
2023-05-15T07:37:59.173Z,17.77
2023-05-15T07:40:25.651Z,18.18
2023-05-15T07:42:52.094Z,18.16
2023-05-15T07:45:18.688Z,18.21
2023-05-15T07:47:46.735Z,19.46
2023-05-15T07:50:13.557Z,19.96
2023-05-15T07:52:40.083Z,19.25
2023-05-15T07:55:06.997Z,18.96
2023-05-15T07:57:33.448Z,18.54
2023-05-15T07:59:59.938Z,20.56
2023-05-15T08:02:26.458Z,20.82
2023-05-15T08:04:53.014Z,21.10
2023-05-15T08:07:19.601Z,20.28
2023-05-15T08:09:46.394Z,21.38
2023-05-15T08:12:21.174Z,22.06
2023-05-15T08:14:51.672Z,22.33
2023-05-15T08:17:19.156Z,21.51
2023-05-15T08:19:45.642Z,21.30
2023-05-15T08:22:12.148Z,22.13
2023-05-15T08:24:39.220Z,20.43
2023-05-15T08:27:06.278Z,22.05
2023-05-15T08:29:33.055Z,22.17
2023-05-15T08:31:59.525Z,23.17
2023-05-15T08:34:26.010Z,22.27
2023-05-15T08:36:52.965Z,21.49
2023-05-15T08:39:19.441Z,18.99
2023-05-15T08:41:48.662Z,18.58
2023-05-15T08:44:15.422Z,18.40
2023-05-15T08:46:41.926Z,18.48
2023-05-15T08:49:15.235Z,18.18
2023-05-15T08:51:41.856Z,17.49
2023-05-15T08:54:08.660Z,17.54
2023-05-15T08:56:35.720Z,18.00
2023-05-15T08:59:02.330Z,17.21
2023-05-15T09:01:28.834Z,17.31
2023-05-15T09:03:55.486Z,17.62
2023-05-15T09:06:22.821Z,17.41
2023-05-15T09:08:50.066Z,17.50
2023-05-15T09:11:16.723Z,17.60
2023-05-15T09:13:43.193Z,17.47
2023-05-15T09:16:09.671Z,17.37
2023-05-15T09:18:38.661Z,17.65
2023-05-15T09:21:34.856Z,17.55
2023-05-15T09:24:20.092Z,17.74
2023-05-15T09:26:48.233Z,17.93
2023-05-15T09:29:18.948Z,19.31
2023-05-15T09:31:48.654Z,18.60
2023-05-15T09:34:15.317Z,19.01
2023-05-15T09:36:45.099Z,20.45
2023-05-15T09:39:12.104Z,20.42
2023-05-15T09:41:41.520Z,20.11
2023-05-15T09:44:19.365Z,21.00
2023-05-15T09:46:48.645Z,21.14
2023-05-15T09:49:15.387Z,20.50
2023-05-15T09:51:43.315Z,22.05
2023-05-15T09:54:14.563Z,22.49
2023-05-15T09:56:43.144Z,22.33
2023-05-15T09:59:12.381Z,21.57
2023-05-15T10:01:38.855Z,22.91
2023-05-15T10:04:06.350Z,24.30
2023-05-15T10:06:41.242Z,23.71
2023-05-15T10:09:10.411Z,22.67
2023-05-15T10:11:41.673Z,22.91
2023-05-15T10:14:09.479Z,22.81
2023-05-15T10:16:37.112Z,20.32
2023-05-15T10:19:05.306Z,20.09
2023-05-15T10:21:36.219Z,19.76
2023-05-15T10:24:03.219Z,19.65
2023-05-15T10:26:35.132Z,19.69
2023-05-15T10:29:02.263Z,20.14
2023-05-15T10:31:29.155Z,22.12
2023-05-15T10:33:55.877Z,21.22
2023-05-15T10:36:22.878Z,22.05
2023-05-15T10:38:49.677Z,21.61
2023-05-15T10:41:18.223Z,21.55
2023-05-15T10:43:45.820Z,22.65
2023-05-15T10:46:13.074Z,22.45
2023-05-15T10:48:40.211Z,24.71
2023-05-15T10:51:13.385Z,25.29
2023-05-15T10:53:39.948Z,21.64
2023-05-15T10:56:06.567Z,21.66
2023-05-15T10:58:34.638Z,22.58
2023-05-15T11:01:01.104Z,24.56
2023-05-15T11:03:47.921Z,23.78
2023-05-15T11:06:15.612Z,23.82
2023-05-15T11:08:45.888Z,23.61
2023-05-15T11:11:30.971Z,23.78
2023-05-15T11:14:07.886Z,23.03
2023-05-15T11:16:52.516Z,22.47
2023-05-15T11:19:22.034Z,23.77
2023-05-15T11:21:53.599Z,24.55
2023-05-15T11:24:20.211Z,25.61
2023-05-15T11:26:46.665Z,26.82
2023-05-15T11:29:19.515Z,26.90
2023-05-15T11:31:46.054Z,26.90
2023-05-15T11:34:13.276Z,27.18
2023-05-15T11:36:39.859Z,26.07
2023-05-15T11:39:15.587Z,27.64
2023-05-15T11:41:42.996Z,26.74
2023-05-15T11:44:09.465Z,27.30
2023-05-15T11:46:36.868Z,28.00
2023-05-15T11:49:03.381Z,27.72
2023-05-15T11:51:30.150Z,28.70
2023-05-15T11:53:58.176Z,28.73
2023-05-15T11:56:25.768Z,26.50
2023-05-15T11:58:54.212Z,26.07
2023-05-15T12:01:20.856Z,26.33
2023-05-15T12:03:48.712Z,28.02
2023-05-15T12:06:15.693Z,28.20
2023-05-15T12:08:42.239Z,27.28
2023-05-15T12:11:08.808Z,27.92
2023-05-15T12:13:35.677Z,27.69
2023-05-15T12:16:03.497Z,27.54
2023-05-15T12:18:33.742Z,28.62
2023-05-15T12:21:00.560Z,26.42
2023-05-15T12:23:28.298Z,27.75
2023-05-15T12:26:00.895Z,28.71
2023-05-15T12:28:28.448Z,26.32
2023-05-15T12:30:55.580Z,25.56
2023-05-15T12:33:22.103Z,26.61
2023-05-15T12:35:58.946Z,27.04
2023-05-15T12:38:27.527Z,27.56
2023-05-15T12:40:54.386Z,27.08
2023-05-15T12:43:24.177Z,25.83
2023-05-15T12:45:52.176Z,25.43
2023-05-15T12:48:18.700Z,24.56
2023-05-15T12:50:45.363Z,24.11
2023-05-15T12:53:13.509Z,24.09
2023-05-15T12:55:40.297Z,23.73
2023-05-15T12:58:08.035Z,23.63
2023-05-15T13:00:35.635Z,24.34
2023-05-15T13:03:02.615Z,23.61
2023-05-15T13:05:32.216Z,23.61
2023-05-15T13:08:03.001Z,23.79
2023-05-15T13:10:32.040Z,23.44
2023-05-15T13:12:58.485Z,23.86
2023-05-15T13:15:26.398Z,23.58
2023-05-15T13:17:56.328Z,24.18
2023-05-15T13:20:24.117Z,23.81
2023-05-15T13:22:51.324Z,23.23
2023-05-15T13:25:18.930Z,23.11
2023-05-15T13:27:45.875Z,23.46
2023-05-15T13:30:13.301Z,24.06
2023-05-15T13:32:39.799Z,24.11
2023-05-15T13:35:06.521Z,24.50
2023-05-15T13:37:33.116Z,24.85
2023-05-15T13:39:59.579Z,25.67
2023-05-15T13:42:26.055Z,25.16
2023-05-15T13:44:52.568Z,24.70
2023-05-15T13:47:19.122Z,24.24
2023-05-15T13:49:46.201Z,23.66
2023-05-15T13:52:12.698Z,23.93
2023-05-15T13:54:39.507Z,24.02
2023-05-15T13:57:05.976Z,24.77
2023-05-15T13:59:32.426Z,25.04
2023-05-15T14:01:58.893Z,23.03
2023-05-15T14:04:25.537Z,25.14
2023-05-15T14:06:52.381Z,24.62
2023-05-15T14:09:18.841Z,23.90
2023-05-15T14:11:45.401Z,24.57
2023-05-15T14:14:11.864Z,24.00
2023-05-15T14:16:38.429Z,24.70
2023-05-15T14:19:05.323Z,24.20
2023-05-15T14:21:31.955Z,23.63
2023-05-15T14:23:58.391Z,23.17
2023-05-15T14:26:24.834Z,22.88
2023-05-15T14:28:51.368Z,23.22
2023-05-15T14:31:17.848Z,22.70
2023-05-15T14:33:44.303Z,22.50
2023-05-15T14:36:10.769Z,23.32
2023-05-15T14:38:37.578Z,23.51
2023-05-15T14:41:04.217Z,23.46
2023-05-15T14:43:30.731Z,23.41
2023-05-15T14:45:57.192Z,23.46
2023-05-15T14:48:23.666Z,23.66
2023-05-15T14:50:50.329Z,24.16
2023-05-15T14:53:16.856Z,24.43
2023-05-15T14:55:43.351Z,24.32
2023-05-15T14:58:11.334Z,24.16
2023-05-15T15:00:38.258Z,24.19
2023-05-15T15:03:04.932Z,24.97
2023-05-15T15:05:31.572Z,24.92
2023-05-15T15:08:00.615Z,24.31
2023-05-15T15:10:27.351Z,23.43
2023-05-15T15:12:54.302Z,22.99
2023-05-15T15:15:21.102Z,22.73
2023-05-15T15:17:47.728Z,22.80
2023-05-15T15:20:15.072Z,22.44
2023-05-15T15:22:41.588Z,22.46
2023-05-15T15:25:08.263Z,23.11
2023-05-15T15:27:37.035Z,22.28
2023-05-15T15:30:08.332Z,22.33
2023-05-15T15:32:35.774Z,22.06
2023-05-15T15:35:02.249Z,21.87
2023-05-15T15:37:30.306Z,22.23
2023-05-15T15:39:57.180Z,22.29
2023-05-15T15:42:23.722Z,22.71
2023-05-15T15:44:50.338Z,22.93
2023-05-15T15:47:16.756Z,22.80
2023-05-15T15:49:43.406Z,22.93
2023-05-15T15:52:09.909Z,22.31
2023-05-15T15:54:36.686Z,21.97
2023-05-15T15:57:03.532Z,22.26
2023-05-15T15:59:30.087Z,22.06
2023-05-15T16:01:57.267Z,22.44
2023-05-15T16:04:23.775Z,22.65
2023-05-15T16:06:50.331Z,22.16
2023-05-15T16:09:19.716Z,22.65
2023-05-15T16:11:46.485Z,22.11
2023-05-15T16:14:13.000Z,21.87
2023-05-15T16:16:39.503Z,21.62
2023-05-15T16:19:06.033Z,22.15
2023-05-15T16:21:32.494Z,21.86
2023-05-15T16:23:58.966Z,21.31
2023-05-15T16:26:25.847Z,21.33
2023-05-15T16:28:52.302Z,21.36
2023-05-15T16:31:18.879Z,21.15
2023-05-15T16:33:45.931Z,21.12
2023-05-15T16:36:12.394Z,20.93
2023-05-15T16:38:38.959Z,20.88
2023-05-15T16:41:05.486Z,20.55
2023-05-15T16:43:31.954Z,20.73
2023-05-15T16:45:58.988Z,20.57
2023-05-15T16:48:27.447Z,21.03
2023-05-15T16:50:53.878Z,20.67
2023-05-15T16:53:20.788Z,20.37
2023-05-15T16:55:47.279Z,20.53
2023-05-15T16:58:13.963Z,20.62
2023-05-15T17:00:40.584Z,20.38
2023-05-15T17:03:07.214Z,20.07
2023-05-15T17:05:33.969Z,20.06
2023-05-15T17:08:00.754Z,19.90
2023-05-15T17:10:27.363Z,19.92
2023-05-15T17:12:54.467Z,19.82
2023-05-15T17:15:20.960Z,19.72
2023-05-15T17:17:47.433Z,19.74
2023-05-15T17:20:13.912Z,19.68
2023-05-15T17:22:40.492Z,19.62
2023-05-15T17:25:07.230Z,19.60
2023-05-15T17:27:35.836Z,19.41
2023-05-15T17:30:02.339Z,19.28
2023-05-15T17:32:28.902Z,19.28
2023-05-15T17:34:55.539Z,19.19
2023-05-15T17:37:21.977Z,19.17
2023-05-15T17:39:48.658Z,18.96
2023-05-15T17:42:15.192Z,19.07
2023-05-15T17:44:43.471Z,19.15
2023-05-15T17:47:10.334Z,19.10
2023-05-15T17:49:37.493Z,19.31
2023-05-15T17:52:04.023Z,18.91
2023-05-15T17:54:30.507Z,18.68
2023-05-15T17:56:57.107Z,18.76
2023-05-15T17:59:23.614Z,18.74
2023-05-15T18:01:50.328Z,19.04
2023-05-15T18:04:16.920Z,18.80
2023-05-15T18:06:43.646Z,18.78
2023-05-15T18:09:10.442Z,18.69
2023-05-15T18:11:36.934Z,18.47
2023-05-15T18:14:03.483Z,18.54
2023-05-15T18:16:31.115Z,18.37
2023-05-15T18:18:57.693Z,18.28
2023-05-15T18:21:24.422Z,18.02
2023-05-15T18:23:50.922Z,18.08
2023-05-15T18:26:17.607Z,18.25
2023-05-15T18:28:44.099Z,18.32
2023-05-15T18:31:10.582Z,18.23
2023-05-15T18:33:37.202Z,18.22
2023-05-15T18:36:05.953Z,18.11
2023-05-15T18:38:33.819Z,18.09
2023-05-15T18:41:00.297Z,18.04
2023-05-15T18:43:26.840Z,17.99
2023-05-15T18:45:54.073Z,17.85
2023-05-15T18:48:20.789Z,17.84
2023-05-15T18:50:47.353Z,17.87
2023-05-15T18:53:13.817Z,17.74
2023-05-15T18:55:40.363Z,17.70
2023-05-15T18:58:06.907Z,17.52
2023-05-15T19:00:38.611Z,17.46
2023-05-15T19:03:06.456Z,17.40
2023-05-15T19:05:34.118Z,17.29
2023-05-15T19:08:00.863Z,17.35
2023-05-15T19:10:29.648Z,17.28
2023-05-15T19:12:56.777Z,17.21
2023-05-15T19:15:23.292Z,16.80
2023-05-15T19:17:49.907Z,16.50
2023-05-15T19:20:16.559Z,16.51
2023-05-15T19:22:43.013Z,16.32
2023-05-15T19:25:10.685Z,15.89
2023-05-15T19:27:37.608Z,15.93
2023-05-15T19:30:04.719Z,15.82
2023-05-15T19:32:31.637Z,15.86
2023-05-15T19:34:58.386Z,15.59
2023-05-15T19:37:24.896Z,15.15
2023-05-15T19:39:51.358Z,15.20
2023-05-15T19:42:17.861Z,15.27
2023-05-15T19:44:44.623Z,15.38
2023-05-15T19:47:11.095Z,15.45
2023-05-15T19:49:37.560Z,15.28
2023-05-15T19:52:04.131Z,15.20
2023-05-15T19:54:30.597Z,15.15
2023-05-15T19:56:58.510Z,15.10
2023-05-15T19:59:24.991Z,15.10
2023-05-15T20:01:51.574Z,15.06
2023-05-15T20:04:19.047Z,15.02
2023-05-15T20:06:45.544Z,14.89
2023-05-15T20:09:11.987Z,14.70
2023-05-15T20:11:38.435Z,14.67
2023-05-15T20:14:04.851Z,14.69
2023-05-15T20:16:31.463Z,14.65
2023-05-15T20:18:58.107Z,14.59
2023-05-15T20:21:24.606Z,14.47
2023-05-15T20:23:51.188Z,14.52
2023-05-15T20:26:18.828Z,14.58
2023-05-15T20:28:45.718Z,14.67
2023-05-15T20:31:12.286Z,14.75
2023-05-15T20:33:38.844Z,14.62
2023-05-15T20:36:05.470Z,14.62
2023-05-15T20:38:33.824Z,14.65
2023-05-15T20:41:00.308Z,14.37
2023-05-15T20:43:26.781Z,14.43
2023-05-15T20:45:53.317Z,14.38
2023-05-15T20:48:19.848Z,14.46
2023-05-15T20:50:46.279Z,14.40
2023-05-15T20:53:13.234Z,14.43
2023-05-15T20:55:39.655Z,14.48
2023-05-15T20:58:06.092Z,14.52
2023-05-15T21:00:33.255Z,14.53
2023-05-15T21:02:59.913Z,14.50
2023-05-15T21:05:26.458Z,14.46
2023-05-15T21:07:52.966Z,14.30
2023-05-15T21:10:20.128Z,14.10
2023-05-15T21:12:46.575Z,14.12
2023-05-15T21:15:13.096Z,14.03
2023-05-15T21:17:40.096Z,14.11
2023-05-15T21:20:07.008Z,14.12
2023-05-15T21:22:34.262Z,14.16
2023-05-15T21:25:00.834Z,14.11
2023-05-15T21:27:27.370Z,14.18
2023-05-15T21:29:53.827Z,14.13
2023-05-15T21:32:23.041Z,13.93
2023-05-15T21:34:49.940Z,13.89
2023-05-15T21:37:16.485Z,13.99
2023-05-15T21:39:42.947Z,13.84
2023-05-15T21:42:10.020Z,13.88
2023-05-15T21:44:36.811Z,14.02
2023-05-15T21:47:03.445Z,14.15
2023-05-15T21:49:29.899Z,14.13
2023-05-15T21:51:56.374Z,14.09
2023-05-15T21:54:22.940Z,14.18
2023-05-15T21:56:49.430Z,14.14
2023-05-15T21:59:15.934Z,14.00
2023-05-15T22:01:42.583Z,14.04
2023-05-15T22:04:09.288Z,14.16
2023-05-15T22:06:35.850Z,14.04
2023-05-15T22:09:02.308Z,14.00
2023-05-15T22:11:28.818Z,14.09
2023-05-15T22:13:55.306Z,14.00
2023-05-15T22:16:21.852Z,14.04
2023-05-15T22:18:48.583Z,14.16
2023-05-15T22:21:15.412Z,14.21
2023-05-15T22:23:41.995Z,14.11
2023-05-15T22:26:08.546Z,14.20
2023-05-15T22:28:35.020Z,14.19
2023-05-15T22:31:01.532Z,14.21
2023-05-15T22:33:28.053Z,14.14
2023-05-15T22:35:54.690Z,14.07
2023-05-15T22:38:21.273Z,14.05
2023-05-15T22:40:51.141Z,14.25
2023-05-15T22:43:17.622Z,14.26
2023-05-15T22:45:44.182Z,14.25
2023-05-15T22:48:10.689Z,14.19
2023-05-15T22:50:37.439Z,14.12
2023-05-15T22:53:03.969Z,14.16
2023-05-15T22:55:30.618Z,14.14
2023-05-15T22:57:57.279Z,14.19
2023-05-15T23:00:23.775Z,14.22
2023-05-15T23:02:50.383Z,14.08
2023-05-15T23:05:16.957Z,14.06
2023-05-15T23:07:43.446Z,14.06
2023-05-15T23:10:10.039Z,14.06
2023-05-15T23:12:36.473Z,14.08
2023-05-15T23:15:03.108Z,13.99
2023-05-15T23:17:29.720Z,13.90
2023-05-15T23:19:56.224Z,13.90
2023-05-15T23:22:22.691Z,13.88
2023-05-15T23:24:49.138Z,13.87
2023-05-15T23:27:15.582Z,13.83
2023-05-15T23:29:42.071Z,13.93
2023-05-15T23:32:08.523Z,13.95
2023-05-15T23:34:35.070Z,13.79
2023-05-15T23:37:01.595Z,13.83
2023-05-15T23:39:28.039Z,13.80
2023-05-15T23:41:54.524Z,13.82
2023-05-15T23:44:21.216Z,13.94
2023-05-15T23:46:47.829Z,14.15
2023-05-15T23:49:14.290Z,14.10
2023-05-15T23:51:40.809Z,14.05
2023-05-15T23:54:07.480Z,14.14
2023-05-15T23:56:33.939Z,14.19
2023-05-15T23:59:00.772Z,14.05
